Time;durP1;ratioP1;P1;durP2;ratioP2;P2;SDS_P1;SDS_P2;PMS_P1;PMS_P2;Temp;Humidity;BMP_temperature;BMP_pressure;BME280_temperature;BME280_humidity;BME280_pressure;Samples;Min_cycle;Max_cycle;Signal;HPM_P1;HPM_P2
2022/04/18 00:00:12;;;;;;;0.57;0.57;;;;;;;;;;1846685;77;26243;-52
2022/04/18 00:02:40;;;;;;;0.68;0.68;;;;;;;;;;1847689;77;26646;-50
2022/04/18 00:05:09;;;;;;;0.70;0.70;;;;;;;;;;1844623;76;26903;-51
2022/04/18 00:07:36;;;;;;;0.70;0.70;;;;;;;;;;1847691;77;26830;-50
2022/04/18 00:10:04;;;;;;;0.70;0.70;;;;;;;;;;1847900;77;27640;-54
2022/04/18 00:12:31;;;;;;;0.70;0.70;;;;;;;;;;1848947;77;26356;-48
2022/04/18 00:14:59;;;;;;;1.45;0.70;;;;;;;;;;1826565;76;26660;-52
2022/04/18 00:17:26;;;;;;;0.60;0.60;;;;;;;;;;1844652;76;26250;-54
2022/04/18 00:19:54;;;;;;;0.80;0.80;;;;;;;;;;1838743;77;26378;-52
2022/04/18 00:22:23;;;;;;;1.12;0.85;;;;;;;;;;1844578;76;26348;-54
2022/04/18 00:24:51;;;;;;;0.70;0.70;;;;;;;;;;1855797;77;26285;-55
2022/04/18 00:27:18;;;;;;;0.50;0.50;;;;;;;;;;1839879;76;26275;-53
2022/04/18 00:29:47;;;;;;;0.70;0.70;;;;;;;;;;1845381;76;26351;-55
2022/04/18 00:32:15;;;;;;;0.60;0.60;;;;;;;;;;1853641;77;26348;-50
2022/04/18 00:34:42;;;;;;;0.60;0.60;;;;;;;;;;1847883;77;26245;-51
2022/04/18 00:37:10;;;;;;;0.62;0.62;;;;;;;;;;1855902;76;26242;-53
2022/04/18 00:39:37;;;;;;;0.80;0.80;;;;;;;;;;1851855;75;26835;-55
2022/04/18 00:42:05;;;;;;;0.60;0.60;;;;;;;;;;1854368;76;26331;-58
2022/04/18 00:44:32;;;;;;;0.68;0.68;;;;;;;;;;1837171;77;26766;-51
2022/04/18 00:47:00;;;;;;;0.55;0.55;;;;;;;;;;1845247;77;26855;-55
2022/04/18 00:49:28;;;;;;;0.70;0.70;;;;;;;;;;1835796;77;26315;-53
2022/04/18 00:51:56;;;;;;;0.50;0.50;;;;;;;;;;1835009;76;26270;-50
2022/04/18 00:54:24;;;;;;;0.68;0.68;;;;;;;;;;1835921;77;26276;-48
2022/04/18 00:56:54;;;;;;;0.53;0.53;;;;;;;;;;1858573;76;26564;-56
2022/04/18 00:59:21;;;;;;;0.47;0.47;;;;;;;;;;1853580;76;26281;-55
2022/04/18 01:01:49;;;;;;;0.47;0.47;;;;;;;;;;1856273;77;25781;-53
2022/04/18 01:04:17;;;;;;;0.55;0.50;;;;;;;;;;1852057;76;26773;-50
2022/04/18 01:06:45;;;;;;;0.68;0.50;;;;;;;;;;1847739;77;26245;-52
2022/04/18 01:09:13;;;;;;;1.45;0.40;;;;;;;;;;1856638;77;26919;-55
2022/04/18 01:11:40;;;;;;;0.57;0.57;;;;;;;;;;1856632;77;26784;-51
2022/04/18 01:14:08;;;;;;;0.60;0.60;;;;;;;;;;1856511;76;26249;-53
2022/04/18 01:16:35;;;;;;;0.50;0.50;;;;;;;;;;1851754;76;26241;-53
2022/04/18 01:19:02;;;;;;;0.50;0.50;;;;;;;;;;1856096;77;26249;-53
2022/04/18 01:21:30;;;;;;;0.60;0.60;;;;;;;;;;1847553;77;27226;-54
2022/04/18 01:23:58;;;;;;;0.50;0.50;;;;;;;;;;1847541;77;26296;-51
2022/04/18 01:29:11;;;;;;;0.57;0.57;;;;;;;;;;1847599;77;26344;-55
2022/04/18 01:31:40;;;;;;;0.60;0.60;;;;;;;;;;1835695;77;27399;-51
2022/04/18 01:34:09;;;;;;;0.57;0.57;;;;;;;;;;1840083;77;26927;-54
2022/04/18 01:36:36;;;;;;;0.60;0.60;;;;;;;;;;1847154;76;26307;-56
2022/04/18 01:39:03;;;;;;;0.53;0.53;;;;;;;;;;1846387;76;26246;-52
2022/04/18 01:41:31;;;;;;;0.53;0.53;;;;;;;;;;1847334;77;26298;-49
2022/04/18 01:43:58;;;;;;;0.70;0.70;;;;;;;;;;1843232;77;26218;-51
2022/04/18 01:46:26;;;;;;;0.50;0.50;;;;;;;;;;1845598;76;26362;-52
2022/04/18 01:48:53;;;;;;;0.40;0.40;;;;;;;;;;1849180;76;26309;-51
2022/04/18 01:51:20;;;;;;;0.65;0.65;;;;;;;;;;1845547;77;26253;-56
2022/04/18 01:53:48;;;;;;;0.50;0.50;;;;;;;;;;1847386;77;26266;-55
2022/04/18 01:56:16;;;;;;;0.80;0.60;;;;;;;;;;1846485;77;26502;-54
2022/04/18 01:58:43;;;;;;;0.82;0.65;;;;;;;;;;1847392;77;26258;-50
2022/04/18 02:01:11;;;;;;;1.12;0.55;;;;;;;;;;1846998;76;26323;-54
2022/04/18 02:03:42;;;;;;;0.60;0.60;;;;;;;;;;1847114;77;26253;-55
2022/04/18 02:06:09;;;;;;;0.60;0.60;;;;;;;;;;1847721;76;26252;-49
2022/04/18 02:08:37;;;;;;;0.53;0.53;;;;;;;;;;1852703;76;26241;-53
2022/04/18 02:11:05;;;;;;;0.60;0.60;;;;;;;;;;1846871;76;26293;-54
2022/04/18 02:13:32;;;;;;;0.72;0.60;;;;;;;;;;1848252;77;26855;-57
2022/04/18 02:16:00;;;;;;;0.50;0.50;;;;;;;;;;1839141;77;26760;-50
2022/04/18 02:18:28;;;;;;;0.50;0.50;;;;;;;;;;1846769;77;26269;-51
2022/04/18 02:20:55;;;;;;;0.95;0.47;;;;;;;;;;1846640;77;26364;-56
2022/04/18 02:23:23;;;;;;;1.57;0.60;;;;;;;;;;1855931;76;26390;-57
2022/04/18 02:25:50;;;;;;;0.50;0.50;;;;;;;;;;1852266;77;27448;-52
2022/04/18 02:28:17;;;;;;;0.65;0.50;;;;;;;;;;1856124;76;26829;-52
2022/04/18 02:30:44;;;;;;;0.50;0.50;;;;;;;;;;1854882;77;26510;-52
2022/04/18 02:33:12;;;;;;;2.02;0.60;;;;;;;;;;1856095;77;26257;-54
2022/04/18 02:35:39;;;;;;;0.53;0.53;;;;;;;;;;1856314;76;26343;-55
2022/04/18 02:38:07;;;;;;;0.65;0.53;;;;;;;;;;1855967;76;26249;-53
2022/04/18 02:40:34;;;;;;;0.53;0.53;;;;;;;;;;1856129;77;26734;-53
2022/04/18 02:43:01;;;;;;;0.60;0.60;;;;;;;;;;1856270;77;26558;-54
2022/04/18 02:45:31;;;;;;;0.68;0.68;;;;;;;;;;1854399;76;26289;-50
2022/04/18 02:47:58;;;;;;;0.50;0.47;;;;;;;;;;1852923;76;26253;-47
2022/04/18 02:50:26;;;;;;;1.00;0.60;;;;;;;;;;1844700;77;26331;-46
2022/04/18 02:52:54;;;;;;;0.50;0.50;;;;;;;;;;1856759;76;26767;-48
2022/04/18 02:55:21;;;;;;;0.50;0.50;;;;;;;;;;1856146;76;26288;-47
2022/04/18 02:57:48;;;;;;;0.50;0.50;;;;;;;;;;1856656;76;26307;-51
2022/04/18 03:00:16;;;;;;;0.62;0.55;;;;;;;;;;1856439;77;26245;-49
2022/04/18 03:02:44;;;;;;;0.85;0.50;;;;;;;;;;1851064;76;26280;-52
2022/04/18 03:05:12;;;;;;;0.53;0.53;;;;;;;;;;1855026;77;26633;-50
2022/04/18 03:07:39;;;;;;;0.45;0.45;;;;;;;;;;1856514;77;26359;-51
2022/04/18 03:10:07;;;;;;;2.20;0.60;;;;;;;;;;1855230;76;26305;-57
2022/04/18 03:12:35;;;;;;;0.50;0.50;;;;;;;;;;1852045;77;27433;-51
2022/04/18 03:15:04;;;;;;;0.90;0.53;;;;;;;;;;1856281;76;26335;-54
2022/04/18 03:17:31;;;;;;;0.47;0.40;;;;;;;;;;1854513;76;26253;-55
2022/04/18 03:19:58;;;;;;;1.42;0.40;;;;;;;;;;1854798;76;26690;-47
2022/04/18 03:22:26;;;;;;;0.40;0.40;;;;;;;;;;1849891;77;26827;-56
2022/04/18 03:24:54;;;;;;;1.40;0.72;;;;;;;;;;1847372;77;26714;-51
2022/04/18 03:27:21;;;;;;;2.30;0.50;;;;;;;;;;1846932;77;26238;-50
2022/04/18 03:29:48;;;;;;;0.47;0.42;;;;;;;;;;1847673;76;26249;-51
2022/04/18 03:32:16;;;;;;;1.40;0.50;;;;;;;;;;1851230;76;26378;-49
2022/04/18 03:34:43;;;;;;;0.50;0.50;;;;;;;;;;1847033;77;26278;-50
2022/04/18 03:39:56;;;;;;;0.85;0.50;;;;;;;;;;1838799;77;26339;-52
2022/04/18 03:42:31;;;;;;;0.47;0.47;;;;;;;;;;1848112;77;26324;-55
2022/04/18 03:45:00;;;;;;;0.50;0.50;;;;;;;;;;1840321;76;26281;-50
2022/04/18 03:47:27;;;;;;;1.57;0.50;;;;;;;;;;1805999;79;26331;-50
2022/04/18 03:49:55;;;;;;;2.05;0.42;;;;;;;;;;1801401;79;26287;-50
2022/04/18 03:52:23;;;;;;;0.50;0.50;;;;;;;;;;1801719;79;26821;-57
2022/04/18 03:54:51;;;;;;;0.53;0.40;;;;;;;;;;1808741;78;26277;-52
2022/04/18 03:57:18;;;;;;;0.93;0.45;;;;;;;;;;1801560;78;26287;-52
2022/04/18 03:59:46;;;;;;;1.00;0.60;;;;;;;;;;1799596;79;26719;-50
2022/04/18 04:02:13;;;;;;;1.17;0.50;;;;;;;;;;1844594;77;26246;-54
2022/04/18 04:04:45;;;;;;;0.60;0.60;;;;;;;;;;1849821;76;26297;-52
2022/04/18 04:07:10;;;;;;;0.45;0.45;;;;;;;;;;1842650;77;26242;-57
2022/04/18 04:09:37;;;;;;;0.40;0.40;;;;;;;;;;1846358;77;26312;-54
2022/04/18 04:12:05;;;;;;;0.50;0.50;;;;;;;;;;1846662;77;26305;-59
2022/04/18 04:14:33;;;;;;;1.22;0.60;;;;;;;;;;1847952;76;26274;-56
2022/04/18 04:17:00;;;;;;;0.40;0.40;;;;;;;;;;1846254;76;26285;-56
2022/04/18 04:19:28;;;;;;;0.55;0.35;;;;;;;;;;1846986;77;26789;-55
2022/04/18 04:21:55;;;;;;;0.47;0.47;;;;;;;;;;1848448;76;26312;-52
2022/04/18 04:24:22;;;;;;;0.75;0.42;;;;;;;;;;1860112;76;26807;-48
2022/04/18 04:26:50;;;;;;;0.50;0.50;;;;;;;;;;1852672;77;26237;-47
2022/04/18 04:29:18;;;;;;;0.50;0.50;;;;;;;;;;1853479;76;26281;-48
2022/04/18 04:31:45;;;;;;;0.30;0.30;;;;;;;;;;1855621;76;26306;-55
2022/04/18 04:34:13;;;;;;;0.40;0.40;;;;;;;;;;1855211;77;26261;-56
2022/04/18 04:36:41;;;;;;;0.30;0.30;;;;;;;;;;1855976;77;26714;-50
2022/04/18 04:39:09;;;;;;;0.62;0.40;;;;;;;;;;1855319;77;26318;-54
2022/04/18 04:41:38;;;;;;;0.50;0.50;;;;;;;;;;1852482;76;26282;-52
2022/04/18 04:44:06;;;;;;;0.50;0.50;;;;;;;;;;1856000;76;26370;-53
2022/04/18 04:46:34;;;;;;;0.40;0.40;;;;;;;;;;1853276;76;26362;-56
2022/04/18 04:49:02;;;;;;;0.50;0.50;;;;;;;;;;1855367;76;27180;-53
2022/04/18 04:51:30;;;;;;;0.37;0.37;;;;;;;;;;1849700;77;26355;-52
2022/04/18 04:53:57;;;;;;;0.60;0.45;;;;;;;;;;1857031;76;27379;-55
2022/04/18 04:56:25;;;;;;;1.17;0.42;;;;;;;;;;1857721;76;26588;-48
2022/04/18 04:58:53;;;;;;;0.72;0.40;;;;;;;;;;1856464;77;26327;-52
2022/04/18 05:01:22;;;;;;;0.50;0.50;;;;;;;;;;1855835;77;26569;-49
2022/04/18 05:03:50;;;;;;;0.40;0.40;;;;;;;;;;1853470;76;26273;-49
2022/04/18 05:06:17;;;;;;;0.42;0.42;;;;;;;;;;1857521;76;26284;-52
2022/04/18 05:08:44;;;;;;;0.45;0.45;;;;;;;;;;1856493;77;26641;-50
2022/04/18 05:11:12;;;;;;;0.40;0.40;;;;;;;;;;1855803;76;26277;-47
2022/04/18 05:13:39;;;;;;;0.30;0.30;;;;;;;;;;1856829;77;26296;-50
2022/04/18 05:16:06;;;;;;;0.40;0.40;;;;;;;;;;1849092;76;26241;-51
2022/04/18 05:18:34;;;;;;;1.07;0.55;;;;;;;;;;1856153;77;26656;-50
2022/04/18 05:21:01;;;;;;;1.07;0.40;;;;;;;;;;1831757;77;26352;-51
2022/04/18 05:23:28;;;;;;;3.70;0.60;;;;;;;;;;1855861;77;26374;-49
2022/04/18 05:25:56;;;;;;;0.60;0.60;;;;;;;;;;1854911;76;26608;-48
2022/04/18 05:28:23;;;;;;;0.60;0.60;;;;;;;;;;1870561;76;26231;-48
2022/04/18 05:30:50;;;;;;;2.67;0.53;;;;;;;;;;1850408;76;26269;-51
2022/04/18 05:33:21;;;;;;;1.55;0.80;;;;;;;;;;1858333;76;26301;-47
2022/04/18 05:35:46;;;;;;;1.05;0.70;;;;;;;;;;1852288;76;26343;-54
2022/04/18 05:38:14;;;;;;;5.60;0.80;;;;;;;;;;1848815;77;26249;-51
2022/04/18 05:40:42;;;;;;;2.37;1.00;;;;;;;;;;1848097;77;26330;-56
2022/04/18 05:43:09;;;;;;;1.70;0.60;;;;;;;;;;1850655;77;26311;-55
2022/04/18 05:45:40;;;;;;;1.10;0.70;;;;;;;;;;1846298;77;27807;-52
2022/04/18 05:48:07;;;;;;;4.42;1.00;;;;;;;;;;1847895;77;26305;-52
2022/04/18 05:50:35;;;;;;;3.05;0.80;;;;;;;;;;1859864;76;27040;-51
2022/04/18 05:53:02;;;;;;;3.33;0.80;;;;;;;;;;1852587;77;26370;-54
2022/04/18 05:55:35;;;;;;;1.20;0.80;;;;;;;;;;1848905;76;26795;-54
2022/04/18 05:57:58;;;;;;;3.58;0.80;;;;;;;;;;1850990;76;26268;-50
2022/04/18 06:00:26;;;;;;;11.53;1.20;;;;;;;;;;1847605;76;26370;-56
2022/04/18 06:02:55;;;;;;;6.80;1.20;;;;;;;;;;1857303;76;26272;-54
2022/04/18 06:05:22;;;;;;;9.58;1.37;;;;;;;;;;1845008;76;26245;-51
2022/04/18 06:07:50;;;;;;;4.75;1.10;;;;;;;;;;1858761;76;26779;-54
2022/04/18 06:10:17;;;;;;;6.75;1.12;;;;;;;;;;1850456;76;26296;-52
2022/04/18 06:12:45;;;;;;;1.10;1.00;;;;;;;;;;1854838;76;26273;-57
2022/04/18 06:15:12;;;;;;;1.98;1.12;;;;;;;;;;1850939;76;26932;-56
2022/04/18 06:17:39;;;;;;;2.22;1.10;;;;;;;;;;1856273;76;26799;-57
2022/04/18 06:20:07;;;;;;;5.53;0.93;;;;;;;;;;1856063;76;26253;-53
2022/04/18 06:22:35;;;;;;;3.58;0.98;;;;;;;;;;1857041;76;26289;-50
2022/04/18 06:25:02;;;;;;;5.03;1.00;;;;;;;;;;1846249;76;26229;-55
2022/04/18 06:27:29;;;;;;;3.15;1.00;;;;;;;;;;1844230;76;26190;-54
2022/04/18 06:29:57;;;;;;;3.83;1.00;;;;;;;;;;1847565;76;26325;-57
2022/04/18 06:32:25;;;;;;;5.78;1.20;;;;;;;;;;1846316;76;27347;-54
2022/04/18 06:34:52;;;;;;;2.75;0.90;;;;;;;;;;1847935;76;27292;-58
2022/04/18 06:37:19;;;;;;;1.47;0.90;;;;;;;;;;1846790;76;26701;-55
2022/04/18 06:39:47;;;;;;;4.58;1.00;;;;;;;;;;1831806;76;26781;-53
2022/04/18 06:42:14;;;;;;;1.85;0.80;;;;;;;;;;1852039;76;26246;-46
2022/04/18 06:44:41;;;;;;;3.47;0.85;;;;;;;;;;1853568;76;26254;-52
2022/04/18 06:47:09;;;;;;;9.93;0.80;;;;;;;;;;1849274;76;26365;-58
2022/04/18 06:49:37;;;;;;;3.05;0.90;;;;;;;;;;1843760;76;26896;-56
2022/04/18 06:52:05;;;;;;;0.90;0.90;;;;;;;;;;1849358;76;26351;-58
2022/04/18 06:54:32;;;;;;;3.60;0.80;;;;;;;;;;1846802;76;26510;-59
2022/04/18 06:57:00;;;;;;;1.60;0.68;;;;;;;;;;1843172;76;26254;-59
2022/04/18 06:59:29;;;;;;;4.45;0.70;;;;;;;;;;1842234;76;26641;-59
2022/04/18 07:01:57;;;;;;;0.70;0.70;;;;;;;;;;1842767;76;26293;-60
2022/04/18 07:04:25;;;;;;;1.50;0.68;;;;;;;;;;1842164;76;26323;-55
2022/04/18 07:06:52;;;;;;;0.90;0.90;;;;;;;;;;1846439;76;26254;-60
2022/04/18 07:09:19;;;;;;;1.20;0.70;;;;;;;;;;1846448;76;26293;-55
2022/04/18 07:11:47;;;;;;;1.47;0.80;;;;;;;;;;1846199;76;26257;-60
2022/04/18 07:14:15;;;;;;;1.12;0.80;;;;;;;;;;1845916;76;26253;-54
2022/04/18 07:16:43;;;;;;;1.30;0.70;;;;;;;;;;1845873;76;26245;-59
2022/04/18 07:19:10;;;;;;;1.98;0.50;;;;;;;;;;1842822;77;26348;-50
2022/04/18 07:21:38;;;;;;;1.37;0.70;;;;;;;;;;1845104;76;26311;-59
2022/04/18 07:24:06;;;;;;;0.75;0.75;;;;;;;;;;1845840;76;26721;-54
2022/04/18 07:26:34;;;;;;;0.62;0.62;;;;;;;;;;1847863;76;26261;-59
2022/04/18 07:29:01;;;;;;;8.78;1.10;;;;;;;;;;1845242;76;26891;-60
2022/04/18 07:31:28;;;;;;;0.60;0.60;;;;;;;;;;1846049;77;26308;-60
2022/04/18 07:33:56;;;;;;;1.37;0.60;;;;;;;;;;1846715;76;26368;-59
2022/04/18 07:36:23;;;;;;;1.72;0.70;;;;;;;;;;1844755;76;26343;-55
2022/04/18 07:38:50;;;;;;;0.70;0.70;;;;;;;;;;1845540;77;26343;-53
2022/04/18 07:41:25;;;;;;;2.08;0.78;;;;;;;;;;1847452;76;26831;-56
2022/04/18 07:43:52;;;;;;;1.62;0.70;;;;;;;;;;1847793;77;26242;-56
2022/04/18 07:46:20;;;;;;;2.05;0.70;;;;;;;;;;1843994;76;26285;-60
2022/04/18 07:48:48;;;;;;;0.60;0.60;;;;;;;;;;1845515;77;26317;-59
2022/04/18 07:51:32;;;;;;;2.10;0.62;;;;;;;;;;1846285;77;26257;-59
2022/04/18 07:53:59;;;;;;;0.50;0.50;;;;;;;;;;1841172;77;26603;-54
2022/04/18 07:56:27;;;;;;;0.62;0.62;;;;;;;;;;1841295;76;26206;-55
2022/04/18 07:58:54;;;;;;;0.82;0.60;;;;;;;;;;1847067;76;26336;-57
2022/04/18 08:01:22;;;;;;;0.65;0.53;;;;;;;;;;1844882;76;26613;-56
2022/04/18 08:03:50;;;;;;;0.93;0.70;;;;;;;;;;1845758;76;26206;-57
2022/04/18 08:06:18;;;;;;;0.60;0.60;;;;;;;;;;1850693;76;26358;-60
2022/04/18 08:08:46;;;;;;;1.80;0.60;;;;;;;;;;1844601;76;26278;-52
2022/04/18 08:11:15;;;;;;;0.50;0.50;;;;;;;;;;1838807;76;26544;-58
2022/04/18 08:13:45;;;;;;;2.95;0.70;;;;;;;;;;1842142;76;26252;-53
2022/04/18 08:16:13;;;;;;;0.70;0.70;;;;;;;;;;1842353;76;26242;-54
2022/04/18 08:18:44;;;;;;;2.67;0.60;;;;;;;;;;1844551;77;26478;-54
2022/04/18 08:21:10;;;;;;;1.00;0.55;;;;;;;;;;1848279;76;26296;-52
2022/04/18 08:23:37;;;;;;;6.58;0.95;;;;;;;;;;1852672;76;26391;-55
2022/04/18 08:26:05;;;;;;;1.20;0.80;;;;;;;;;;1835143;76;26283;-53
2022/04/18 08:28:33;;;;;;;0.68;0.68;;;;;;;;;;1838615;76;26696;-49
2022/04/18 08:31:01;;;;;;;2.35;0.70;;;;;;;;;;1848111;76;26254;-47
2022/04/18 08:33:29;;;;;;;1.65;0.60;;;;;;;;;;1845541;76;26364;-46
2022/04/18 08:35:58;;;;;;;1.35;0.68;;;;;;;;;;1840586;76;26577;-50
2022/04/18 08:38:26;;;;;;;0.60;0.55;;;;;;;;;;1841630;76;26541;-50
2022/04/18 08:40:57;;;;;;;1.87;0.70;;;;;;;;;;1844305;76;26246;-46
2022/04/18 08:43:24;;;;;;;0.55;0.55;;;;;;;;;;1847086;76;26360;-50
2022/04/18 08:45:52;;;;;;;0.70;0.70;;;;;;;;;;1857369;76;26748;-49
2022/04/18 08:53:52;;;;;;;2.20;0.60;;;;;;;;;;1845931;76;26765;-47
2022/04/18 08:56:20;;;;;;;2.20;0.80;;;;;;;;;;1856894;76;26242;-47
2022/04/18 08:58:47;;;;;;;1.12;0.60;;;;;;;;;;1847481;76;26639;-45
2022/04/18 09:01:14;;;;;;;1.85;0.60;;;;;;;;;;1842017;76;26721;-46
2022/04/18 09:03:42;;;;;;;0.88;0.65;;;;;;;;;;1841776;77;26888;-50
2022/04/18 09:06:11;;;;;;;1.90;0.68;;;;;;;;;;1845543;76;26251;-48
2022/04/18 09:08:53;;;;;;;0.70;0.70;;;;;;;;;;1853115;76;26288;-50
2022/04/18 09:11:30;;;;;;;1.50;0.65;;;;;;;;;;1834670;76;26332;-46
2022/04/18 09:14:14;;;;;;;0.70;0.65;;;;;;;;;;1841440;76;26262;-46
2022/04/18 09:16:42;;;;;;;0.62;0.62;;;;;;;;;;1848055;76;26246;-46
2022/04/18 09:19:11;;;;;;;1.17;0.60;;;;;;;;;;1850908;76;26199;-48
2022/04/18 09:21:39;;;;;;;0.98;0.70;;;;;;;;;;1847680;76;26480;-48
2022/04/18 09:24:07;;;;;;;0.60;0.60;;;;;;;;;;1836270;76;26323;-44
2022/04/18 09:26:35;;;;;;;0.80;0.65;;;;;;;;;;1848874;76;26257;-46
2022/04/18 09:29:04;;;;;;;2.15;0.93;;;;;;;;;;1856111;76;26253;-48
2022/04/18 09:31:33;;;;;;;0.78;0.70;;;;;;;;;;1854977;76;26709;-46
2022/04/18 09:34:00;;;;;;;1.70;0.70;;;;;;;;;;1852559;76;26351;-50
2022/04/18 09:36:28;;;;;;;0.62;0.60;;;;;;;;;;1872840;76;26218;-44
2022/04/18 09:38:56;;;;;;;1.10;0.68;;;;;;;;;;1862695;76;26907;-48
2022/04/18 09:41:25;;;;;;;0.90;0.90;;;;;;;;;;1857009;76;26280;-46
2022/04/18 09:43:53;;;;;;;0.80;0.80;;;;;;;;;;1856884;76;26249;-46
2022/04/18 09:46:21;;;;;;;0.70;0.70;;;;;;;;;;1837216;76;27474;-50
2022/04/18 09:48:50;;;;;;;0.60;0.60;;;;;;;;;;1856955;76;26323;-44
2022/04/18 09:51:19;;;;;;;2.30;0.65;;;;;;;;;;1849478;76;26244;-45
2022/04/18 09:53:47;;;;;;;0.90;0.90;;;;;;;;;;1851443;76;26356;-46
2022/04/18 09:56:19;;;;;;;0.70;0.70;;;;;;;;;;1844648;76;26328;-46
2022/04/18 09:58:46;;;;;;;0.88;0.80;;;;;;;;;;1850191;76;26342;-49
2022/04/18 10:01:14;;;;;;;0.70;0.70;;;;;;;;;;1852747;76;26246;-50
2022/04/18 10:03:43;;;;;;;1.77;0.50;;;;;;;;;;1861799;76;26249;-52
2022/04/18 10:06:11;;;;;;;1.00;0.65;;;;;;;;;;1872854;76;26242;-47
2022/04/18 10:08:39;;;;;;;0.55;0.55;;;;;;;;;;1854711;76;26614;-46
2022/04/18 10:11:14;;;;;;;0.60;0.60;;;;;;;;;;1855298;76;26316;-47
2022/04/18 10:13:41;;;;;;;1.65;0.75;;;;;;;;;;1856632;76;27396;-50
2022/04/18 10:16:09;;;;;;;0.80;0.80;;;;;;;;;;1845829;76;26352;-49
2022/04/18 10:18:50;;;;;;;2.50;0.70;;;;;;;;;;1816964;77;26264;-46
2022/04/18 10:21:22;;;;;;;0.60;0.60;;;;;;;;;;1799825;78;26456;-48
2022/04/18 10:23:50;;;;;;;1.02;0.70;;;;;;;;;;1804085;78;26283;-51
2022/04/18 10:26:31;;;;;;;0.70;0.70;;;;;;;;;;1782799;80;26366;-51
2022/04/18 10:29:00;;;;;;;0.70;0.70;;;;;;;;;;1836766;76;26293;-48
2022/04/18 10:31:29;;;;;;;0.72;0.72;;;;;;;;;;1840652;76;26377;-47
2022/04/18 10:33:57;;;;;;;0.68;0.68;;;;;;;;;;1851344;76;26289;-46
2022/04/18 10:36:26;;;;;;;0.60;0.60;;;;;;;;;;1828981;76;26283;-52
2022/04/18 10:38:54;;;;;;;0.68;0.68;;;;;;;;;;1850772;76;26208;-45
2022/04/18 10:41:37;;;;;;;1.35;0.60;;;;;;;;;;1850187;76;26760;-44
2022/04/18 10:44:09;;;;;;;0.60;0.60;;;;;;;;;;1845631;76;25714;-51
2022/04/18 10:46:47;;;;;;;0.65;0.65;;;;;;;;;;1840472;76;27356;-48
2022/04/18 10:49:17;;;;;;;0.70;0.70;;;;;;;;;;1845851;76;26261;-48
2022/04/18 10:51:46;;;;;;;0.60;0.60;;;;;;;;;;1847926;76;26265;-50
2022/04/18 10:54:18;;;;;;;1.55;0.60;;;;;;;;;;1847298;76;26325;-44
2022/04/18 10:57:02;;;;;;;0.88;0.70;;;;;;;;;;1840404;76;26763;-48
2022/04/18 10:59:31;;;;;;;0.50;0.50;;;;;;;;;;1834676;76;26369;-44
2022/04/18 11:02:02;;;;;;;0.55;0.55;;;;;;;;;;1789447;79;26330;-48
2022/04/18 11:04:30;;;;;;;0.62;0.62;;;;;;;;;;1811654;77;26269;-50
2022/04/18 11:06:59;;;;;;;0.70;0.70;;;;;;;;;;1786034;78;26737;-44
2022/04/18 11:09:27;;;;;;;1.15;0.80;;;;;;;;;;1786710;78;26927;-45
2022/04/18 11:12:05;;;;;;;0.62;0.62;;;;;;;;;;1849346;76;26263;-47
2022/04/18 11:14:31;;;;;;;0.60;0.60;;;;;;;;;;1847604;76;26302;-49
2022/04/18 11:17:00;;;;;;;0.53;0.53;;;;;;;;;;1844995;76;26888;-45
2022/04/18 11:19:28;;;;;;;1.07;0.80;;;;;;;;;;1857578;76;26331;-48
2022/04/18 11:21:59;;;;;;;0.62;0.62;;;;;;;;;;1847569;76;26274;-45
2022/04/18 11:24:38;;;;;;;0.60;0.60;;;;;;;;;;1834312;76;26570;-46
2022/04/18 11:27:10;;;;;;;0.62;0.60;;;;;;;;;;1853216;76;26297;-46
2022/04/18 11:29:38;;;;;;;0.60;0.60;;;;;;;;;;1847273;75;26237;-53
2022/04/18 11:32:06;;;;;;;0.50;0.50;;;;;;;;;;1855959;76;26260;-52
2022/04/18 11:34:34;;;;;;;0.68;0.68;;;;;;;;;;1869244;75;26690;-44
2022/04/18 11:37:03;;;;;;;0.70;0.70;;;;;;;;;;1863064;75;26803;-47
2022/04/18 11:39:48;;;;;;;0.62;0.62;;;;;;;;;;1865888;75;26708;-47
2022/04/18 11:42:16;;;;;;;0.50;0.50;;;;;;;;;;1881594;75;26322;-46
2022/04/18 11:44:44;;;;;;;0.60;0.60;;;;;;;;;;1859238;75;26354;-47
2022/04/18 11:47:13;;;;;;;0.53;0.53;;;;;;;;;;1860169;75;26240;-49
2022/04/18 11:49:44;;;;;;;0.60;0.60;;;;;;;;;;1866820;75;26268;-45
2022/04/18 11:52:17;;;;;;;0.50;0.50;;;;;;;;;;1859749;75;26883;-48
2022/04/18 11:54:55;;;;;;;1.32;0.68;;;;;;;;;;1861953;76;26276;-49
2022/04/18 11:57:22;;;;;;;0.42;0.42;;;;;;;;;;1860966;77;26831;-45
2022/04/18 11:59:50;;;;;;;0.50;0.50;;;;;;;;;;1862137;75;26237;-46
2022/04/18 12:07:46;;;;;;;0.68;0.68;;;;;;;;;;1803190;76;26280;-46
2022/04/18 12:10:23;;;;;;;0.60;0.60;;;;;;;;;;1858892;77;26273;-48
2022/04/18 12:12:50;;;;;;;1.37;0.47;;;;;;;;;;1862363;75;26976;-46
2022/04/18 12:15:19;;;;;;;0.50;0.50;;;;;;;;;;1862129;77;26273;-44
2022/04/18 12:17:46;;;;;;;0.50;0.50;;;;;;;;;;1862167;77;26307;-52
2022/04/18 12:20:21;;;;;;;0.85;0.60;;;;;;;;;;1860167;77;26810;-48
2022/04/18 12:22:53;;;;;;;0.60;0.60;;;;;;;;;;1861519;75;26241;-51
2022/04/18 12:25:22;;;;;;;0.53;0.53;;;;;;;;;;1860377;76;26732;-47
2022/04/18 12:27:50;;;;;;;0.50;0.50;;;;;;;;;;1852926;76;26245;-48
2022/04/18 12:30:18;;;;;;;0.55;0.55;;;;;;;;;;1856206;76;26776;-49
2022/04/18 12:32:50;;;;;;;1.00;0.45;;;;;;;;;;1856145;76;26253;-49
2022/04/18 12:35:17;;;;;;;0.40;0.40;;;;;;;;;;1851147;76;26362;-47
2022/04/18 12:37:48;;;;;;;0.50;0.50;;;;;;;;;;1855930;76;26297;-49
2022/04/18 12:40:17;;;;;;;0.65;0.65;;;;;;;;;;1852089;76;26804;-46
2022/04/18 12:42:50;;;;;;;0.50;0.50;;;;;;;;;;1855173;76;26710;-47
2022/04/18 12:45:17;;;;;;;0.50;0.50;;;;;;;;;;1854910;76;26766;-46
2022/04/18 12:47:45;;;;;;;1.12;0.40;;;;;;;;;;1855031;76;26249;-50
2022/04/18 12:50:16;;;;;;;0.60;0.60;;;;;;;;;;1852166;76;26787;-45
2022/04/18 12:52:47;;;;;;;0.50;0.50;;;;;;;;;;1856277;76;26339;-46
2022/04/18 12:55:14;;;;;;;0.60;0.60;;;;;;;;;;1856600;76;26289;-47
2022/04/18 12:57:43;;;;;;;0.57;0.57;;;;;;;;;;1865180;76;26233;-51
2022/04/18 13:00:12;;;;;;;0.70;0.70;;;;;;;;;;1856127;76;26311;-50
2022/04/18 13:02:40;;;;;;;0.75;0.75;;;;;;;;;;1854451;76;26338;-49
2022/04/18 13:05:08;;;;;;;0.70;0.70;;;;;;;;;;1857470;76;26386;-49
2022/04/18 13:07:39;;;;;;;0.70;0.70;;;;;;;;;;1857100;76;26596;-46
2022/04/18 13:10:07;;;;;;;0.80;0.80;;;;;;;;;;1855163;76;26321;-50
2022/04/18 13:12:34;;;;;;;0.70;0.70;;;;;;;;;;1848567;76;26335;-46
2022/04/18 13:15:05;;;;;;;0.62;0.62;;;;;;;;;;1852910;76;26245;-50
2022/04/18 13:17:35;;;;;;;0.70;0.70;;;;;;;;;;1855173;76;25683;-44
2022/04/18 13:20:07;;;;;;;0.70;0.70;;;;;;;;;;1855797;76;26312;-43
2022/04/18 13:22:35;;;;;;;0.60;0.60;;;;;;;;;;1853035;76;26225;-45
2022/04/18 13:25:02;;;;;;;0.60;0.60;;;;;;;;;;1859201;76;26645;-47
2022/04/18 13:27:29;;;;;;;0.68;0.68;;;;;;;;;;1856367;76;26339;-47
2022/04/18 13:29:57;;;;;;;0.65;0.65;;;;;;;;;;1856868;76;26249;-47
2022/04/18 13:32:25;;;;;;;0.70;0.70;;;;;;;;;;1854158;76;26299;-49
2022/04/18 13:34:53;;;;;;;0.68;0.68;;;;;;;;;;1853186;76;26600;-47
2022/04/18 13:37:21;;;;;;;0.60;0.60;;;;;;;;;;1856629;76;26280;-44
2022/04/18 13:39:49;;;;;;;0.70;0.70;;;;;;;;;;1856427;76;26331;-48
2022/04/18 13:42:16;;;;;;;0.70;0.70;;;;;;;;;;1857088;76;26249;-46
2022/04/18 13:44:44;;;;;;;0.50;0.50;;;;;;;;;;1856719;76;26269;-46
2022/04/18 13:47:12;;;;;;;0.40;0.40;;;;;;;;;;1857251;76;25765;-47
2022/04/18 13:49:40;;;;;;;0.68;0.68;;;;;;;;;;1869245;76;26352;-47
2022/04/18 13:52:11;;;;;;;0.70;0.70;;;;;;;;;;1850008;76;26327;-50
2022/04/18 13:54:39;;;;;;;0.70;0.70;;;;;;;;;;1852948;76;26355;-49
2022/04/18 13:57:07;;;;;;;0.70;0.70;;;;;;;;;;1856236;76;26261;-46
2022/04/18 13:59:35;;;;;;;0.70;0.70;;;;;;;;;;1851602;76;26246;-46
2022/04/18 14:02:02;;;;;;;0.62;0.62;;;;;;;;;;1854028;76;26316;-47
2022/04/18 14:04:30;;;;;;;0.70;0.70;;;;;;;;;;1855826;76;26305;-49
2022/04/18 14:06:57;;;;;;;0.70;0.70;;;;;;;;;;1855178;76;26277;-44
2022/04/18 14:09:25;;;;;;;0.80;0.80;;;;;;;;;;1857562;76;26828;-44
2022/04/18 14:11:52;;;;;;;0.80;0.80;;;;;;;;;;1853958;76;26366;-48
2022/04/18 14:22:36;;;;;;;1.00;0.90;;;;;;;;;;1849357;76;26253;-46
2022/04/18 14:25:04;;;;;;;1.10;0.98;;;;;;;;;;1858718;76;26272;-48
2022/04/18 14:27:32;;;;;;;0.90;0.90;;;;;;;;;;1851088;76;26269;-46
2022/04/18 14:29:59;;;;;;;0.72;0.72;;;;;;;;;;1844415;76;26309;-47
2022/04/18 14:32:26;;;;;;;0.80;0.80;;;;;;;;;;1844780;76;26725;-49
2022/04/18 14:34:54;;;;;;;0.90;0.85;;;;;;;;;;1843885;76;26603;-48
2022/04/18 14:37:24;;;;;;;0.80;0.80;;;;;;;;;;1842106;76;26339;-50
2022/04/18 14:39:50;;;;;;;0.78;0.78;;;;;;;;;;1842185;76;26277;-44
2022/04/18 14:42:17;;;;;;;0.90;0.90;;;;;;;;;;1845975;76;26250;-48
2022/04/18 14:44:45;;;;;;;0.80;0.80;;;;;;;;;;1848687;76;26301;-48
2022/04/18 14:47:12;;;;;;;0.80;0.80;;;;;;;;;;1844760;76;26242;-45
2022/04/18 14:49:39;;;;;;;1.00;1.00;;;;;;;;;;1846815;76;26337;-47
2022/04/18 14:52:09;;;;;;;0.47;0.47;;;;;;;;;;1847430;76;26253;-44
2022/04/18 14:54:36;;;;;;;0.70;0.70;;;;;;;;;;1844670;76;26327;-49
2022/04/18 14:57:04;;;;;;;0.90;0.90;;;;;;;;;;1838341;76;26270;-49
2022/04/18 14:59:31;;;;;;;2.77;0.93;;;;;;;;;;1842377;76;26836;-45
2022/04/18 15:01:59;;;;;;;0.70;0.70;;;;;;;;;;1846677;76;26234;-44
2022/04/18 15:04:26;;;;;;;0.70;0.70;;;;;;;;;;1846580;76;26359;-46
2022/04/18 15:06:53;;;;;;;0.80;0.80;;;;;;;;;;1852920;76;26270;-46
2022/04/18 15:09:21;;;;;;;0.80;0.80;;;;;;;;;;1846827;76;26321;-47
2022/04/18 15:11:48;;;;;;;0.80;0.80;;;;;;;;;;1846213;76;26261;-49
2022/04/18 15:14:16;;;;;;;1.12;0.90;;;;;;;;;;1847234;76;26242;-48